KMEM/MEM METAR and TAF weather

Enter ICAO airport designator
Station Type Date Time Source
KMEM METAR 2021/07/24 20:54 UTC NOAA

KMEM 242054Z 00000KT 10SM SCT045 33/23 A3000 RMK AO2 SLP152 T03330228 56017


Station Type Date Time Source
KMEM Decoded METAR 2021/07/24 20:54 UTC NOAA

MEMPHIS INTERNATIONAL AIRPORT , TN, United States (KMEM) 35-02N 089-59W 86M
Jul 24, 2021 - 04:54 PM EDT / 2021.07.24 2054 UTC
Wind: Calm:0
Visibility: 10 mile(s):0
Sky conditions: partly cloudy
Temperature: 91.9 F (33.3 C)
Heat index: 100.6 F (38.1 C):1
Dew Point: 73.0 F (22.8 C)
Relative Humidity: 54%
Pressure (altimeter): 30 in. Hg (1015 hPa)
Pressure tendency: 0.05 inches (1.7 hPa) lower than three hours ago
ob: KMEM 242054Z 00000KT 10SM SCT045 33/23 A3000 RMK AO2 SLP152 T03330228 56017
cycle: 21

Station Type Date Time Source
KMEM TAF 2021/07/24 21:52 UTC NOAA

TAF
AMD KMEM 242050Z 2421/2524 26004KT P6SM VCSH SCT045
FM250000 19003KT P6SM FEW250
FM251500 22005KT P6SM FEW035
FM251900 25006KT P6SM BKN045

Example: see airport list